sensor_id;sensor_type;location;lat;lon;timestamp;P1;durP1;ratioP1;P2;durP2;ratioP2
20846;SDS011;10584;50.854;12.902;2023-02-10T00:00:00;28.53;;;11.40;;
20846;SDS011;10584;50.854;12.902;2023-02-10T00:05:23;29.77;;;10.93;;
20846;SDS011;10584;50.854;12.902;2023-02-10T00:10:45;24.73;;;9.87;;
20846;SDS011;10584;50.854;12.902;2023-02-10T00:16:07;29.97;;;10.93;;
20846;SDS011;10584;50.854;12.902;2023-02-10T00:21:31;25.67;;;8.90;;
20846;SDS011;10584;50.854;12.902;2023-02-10T00:26:53;29.87;;;11.53;;
20846;SDS011;10584;50.854;12.902;2023-02-10T00:32:14;28.00;;;9.73;;
20846;SDS011;10584;50.854;12.902;2023-02-10T00:37:37;28.07;;;11.57;;
20846;SDS011;10584;50.854;12.902;2023-02-10T00:42:59;26.73;;;11.10;;
20846;SDS011;10584;50.854;12.902;2023-02-10T00:48:20;29.30;;;10.90;;
20846;SDS011;10584;50.854;12.902;2023-02-10T00:53:42;26.53;;;11.10;;
20846;SDS011;10584;50.854;12.902;2023-02-10T00:59:05;28.40;;;11.33;;
20846;SDS011;10584;50.854;12.902;2023-02-10T01:04:28;27.50;;;10.50;;
20846;SDS011;10584;50.854;12.902;2023-02-10T01:09:49;24.70;;;9.40;;
20846;SDS011;10584;50.854;12.902;2023-02-10T01:15:10;18.57;;;7.53;;
20846;SDS011;10584;50.854;12.902;2023-02-10T01:20:33;31.10;;;11.53;;
20846;SDS011;10584;50.854;12.902;2023-02-10T01:25:58;30.23;;;11.47;;
20846;SDS011;10584;50.854;12.902;2023-02-10T01:31:20;28.63;;;11.47;;
20846;SDS011;10584;50.854;12.902;2023-02-10T01:36:43;34.17;;;11.23;;
20846;SDS011;10584;50.854;12.902;2023-02-10T01:42:05;16.97;;;6.90;;
20846;SDS011;10584;50.854;12.902;2023-02-10T01:47:28;34.50;;;11.10;;
20846;SDS011;10584;50.854;12.902;2023-02-10T01:52:50;34.03;;;12.17;;
20846;SDS011;10584;50.854;12.902;2023-02-10T01:58:13;27.77;;;10.27;;
20846;SDS011;10584;50.854;12.902;2023-02-10T02:03:37;31.00;;;12.40;;
20846;SDS011;10584;50.854;12.902;2023-02-10T02:09:02;30.90;;;11.13;;
20846;SDS011;10584;50.854;12.902;2023-02-10T02:14:28;28.10;;;12.13;;
20846;SDS011;10584;50.854;12.902;2023-02-10T02:31:33;33.70;;;13.03;;
20846;SDS011;10584;50.854;12.902;2023-02-10T02:37:11;34.00;;;12.67;;
20846;SDS011;10584;50.854;12.902;2023-02-10T02:42:39;31.10;;;11.63;;
20846;SDS011;10584;50.854;12.902;2023-02-10T02:53:34;29.20;;;11.17;;
20846;SDS011;10584;50.854;12.902;2023-02-10T02:59:22;29.87;;;11.97;;
20846;SDS011;10584;50.854;12.902;2023-02-10T03:05:10;37.53;;;12.60;;
20846;SDS011;10584;50.854;12.902;2023-02-10T03:10:37;37.30;;;13.50;;
20846;SDS011;10584;50.854;12.902;2023-02-10T03:15:59;35.77;;;13.67;;
20846;SDS011;10584;50.854;12.902;2023-02-10T03:21:20;32.00;;;12.30;;
20846;SDS011;10584;50.854;12.902;2023-02-10T03:26:42;33.27;;;12.90;;
20846;SDS011;10584;50.854;12.902;2023-02-10T03:32:04;33.50;;;13.10;;
20846;SDS011;10584;50.854;12.902;2023-02-10T03:37:26;29.50;;;11.83;;
20846;SDS011;10584;50.854;12.902;2023-02-10T03:42:47;24.80;;;10.00;;
20846;SDS011;10584;50.854;12.902;2023-02-10T03:48:09;26.50;;;9.43;;
20846;SDS011;10584;50.854;12.902;2023-02-10T03:53:31;32.70;;;12.57;;
20846;SDS011;10584;50.854;12.902;2023-02-10T03:58:53;28.00;;;9.43;;
20846;SDS011;10584;50.854;12.902;2023-02-10T04:04:14;32.10;;;12.27;;
20846;SDS011;10584;50.854;12.902;2023-02-10T04:09:36;35.63;;;12.43;;
20846;SDS011;10584;50.854;12.902;2023-02-10T04:14:57;35.00;;;14.10;;
20846;SDS011;10584;50.854;12.902;2023-02-10T04:20:19;35.27;;;13.47;;
20846;SDS011;10584;50.854;12.902;2023-02-10T04:25:41;38.03;;;13.67;;
20846;SDS011;10584;50.854;12.902;2023-02-10T04:31:02;32.70;;;12.93;;
20846;SDS011;10584;50.854;12.902;2023-02-10T04:36:27;37.30;;;14.67;;
20846;SDS011;10584;50.854;12.902;2023-02-10T04:41:48;36.50;;;13.57;;
20846;SDS011;10584;50.854;12.902;2023-02-10T04:47:10;38.93;;;14.97;;
20846;SDS011;10584;50.854;12.902;2023-02-10T04:52:31;39.47;;;14.37;;
20846;SDS011;10584;50.854;12.902;2023-02-10T04:57:53;42.43;;;14.77;;
20846;SDS011;10584;50.854;12.902;2023-02-10T05:03:14;43.63;;;15.87;;
20846;SDS011;10584;50.854;12.902;2023-02-10T05:08:36;39.00;;;14.10;;
20846;SDS011;10584;50.854;12.902;2023-02-10T05:14:01;42.93;;;16.03;;
20846;SDS011;10584;50.854;12.902;2023-02-10T05:19:22;39.97;;;16.13;;
20846;SDS011;10584;50.854;12.902;2023-02-10T05:24:44;40.00;;;16.03;;
20846;SDS011;10584;50.854;12.902;2023-02-10T05:30:10;44.40;;;18.60;;
20846;SDS011;10584;50.854;12.902;2023-02-10T05:35:33;46.90;;;18.07;;
20846;SDS011;10584;50.854;12.902;2023-02-10T05:40:54;52.57;;;18.70;;
20846;SDS011;10584;50.854;12.902;2023-02-10T05:46:15;46.63;;;18.77;;
20846;SDS011;10584;50.854;12.902;2023-02-10T05:51:37;51.13;;;19.03;;
20846;SDS011;10584;50.854;12.902;2023-02-10T05:56:58;51.50;;;18.97;;
20846;SDS011;10584;50.854;12.902;2023-02-10T06:02:20;47.57;;;18.53;;
20846;SDS011;10584;50.854;12.902;2023-02-10T06:07:41;56.33;;;20.00;;
20846;SDS011;10584;50.854;12.902;2023-02-10T06:13:03;50.30;;;19.70;;
20846;SDS011;10584;50.854;12.902;2023-02-10T06:18:24;40.40;;;16.27;;
20846;SDS011;10584;50.854;12.902;2023-02-10T06:23:46;47.87;;;18.80;;
20846;SDS011;10584;50.854;12.902;2023-02-10T06:29:07;51.53;;;17.50;;
20846;SDS011;10584;50.854;12.902;2023-02-10T06:34:29;53.73;;;20.50;;
20846;SDS011;10584;50.854;12.902;2023-02-10T06:39:50;47.57;;;18.27;;
20846;SDS011;10584;50.854;12.902;2023-02-10T06:45:12;53.13;;;20.47;;
20846;SDS011;10584;50.854;12.902;2023-02-10T06:50:35;54.27;;;21.23;;
20846;SDS011;10584;50.854;12.902;2023-02-10T06:55:58;54.40;;;19.87;;
20846;SDS011;10584;50.854;12.902;2023-02-10T07:01:20;51.33;;;20.77;;
20846;SDS011;10584;50.854;12.902;2023-02-10T07:06:41;58.13;;;20.07;;
20846;SDS011;10584;50.854;12.902;2023-02-10T07:12:03;56.53;;;21.00;;
20846;SDS011;10584;50.854;12.902;2023-02-10T07:17:25;58.23;;;21.33;;
20846;SDS011;10584;50.854;12.902;2023-02-10T07:22:47;53.37;;;20.73;;
20846;SDS011;10584;50.854;12.902;2023-02-10T07:28:08;53.07;;;20.17;;
20846;SDS011;10584;50.854;12.902;2023-02-10T07:33:30;49.07;;;18.27;;
20846;SDS011;10584;50.854;12.902;2023-02-10T07:38:51;56.83;;;21.73;;
20846;SDS011;10584;50.854;12.902;2023-02-10T07:44:13;53.83;;;20.63;;
20846;SDS011;10584;50.854;12.902;2023-02-10T07:49:35;49.90;;;20.77;;
20846;SDS011;10584;50.854;12.902;2023-02-10T07:54:57;57.37;;;22.30;;
20846;SDS011;10584;50.854;12.902;2023-02-10T08:00:18;62.97;;;22.20;;
20846;SDS011;10584;50.854;12.902;2023-02-10T08:05:40;53.30;;;20.53;;
20846;SDS011;10584;50.854;12.902;2023-02-10T08:11:05;58.43;;;22.73;;
20846;SDS011;10584;50.854;12.902;2023-02-10T08:16:27;57.30;;;19.13;;
20846;SDS011;10584;50.854;12.902;2023-02-10T08:21:49;51.77;;;20.37;;
20846;SDS011;10584;50.854;12.902;2023-02-10T08:27:10;60.83;;;21.67;;
20846;SDS011;10584;50.854;12.902;2023-02-10T08:32:32;67.63;;;23.97;;
20846;SDS011;10584;50.854;12.902;2023-02-10T08:37:53;57.73;;;21.53;;
20846;SDS011;10584;50.854;12.902;2023-02-10T08:43:15;65.47;;;24.30;;
20846;SDS011;10584;50.854;12.902;2023-02-10T08:48:38;60.07;;;20.53;;
20846;SDS011;10584;50.854;12.902;2023-02-10T08:54:00;69.57;;;24.77;;
20846;SDS011;10584;50.854;12.902;2023-02-10T08:59:22;63.30;;;22.80;;
20846;SDS011;10584;50.854;12.902;2023-02-10T09:04:43;63.90;;;23.73;;
20846;SDS011;10584;50.854;12.902;2023-02-10T09:10:09;68.57;;;25.33;;
20846;SDS011;10584;50.854;12.902;2023-02-10T09:15:31;65.77;;;25.07;;
20846;SDS011;10584;50.854;12.902;2023-02-10T09:20:56;67.87;;;25.47;;
20846;SDS011;10584;50.854;12.902;2023-02-10T09:26:18;67.23;;;25.07;;
20846;SDS011;10584;50.854;12.902;2023-02-10T09:31:40;56.90;;;17.73;;
20846;SDS011;10584;50.854;12.902;2023-02-10T09:37:02;71.63;;;25.27;;
20846;SDS011;10584;50.854;12.902;2023-02-10T09:42:26;70.97;;;22.47;;
20846;SDS011;10584;50.854;12.902;2023-02-10T09:47:58;54.20;;;20.37;;
20846;SDS011;10584;50.854;12.902;2023-02-10T09:53:26;58.03;;;21.40;;
20846;SDS011;10584;50.854;12.902;2023-02-10T09:58:50;60.73;;;22.60;;
20846;SDS011;10584;50.854;12.902;2023-02-10T10:04:17;60.70;;;21.63;;
20846;SDS011;10584;50.854;12.902;2023-02-10T10:09:41;50.37;;;19.33;;
20846;SDS011;10584;50.854;12.902;2023-02-10T10:15:15;60.77;;;22.30;;
20846;SDS011;10584;50.854;12.902;2023-02-10T10:20:41;61.27;;;21.07;;
20846;SDS011;10584;50.854;12.902;2023-02-10T10:31:52;58.87;;;22.47;;
20846;SDS011;10584;50.854;12.902;2023-02-10T10:37:34;49.27;;;17.10;;
20846;SDS011;10584;50.854;12.902;2023-02-10T10:42:59;58.57;;;20.63;;
20846;SDS011;10584;50.854;12.902;2023-02-10T10:48:22;58.97;;;20.40;;
20846;SDS011;10584;50.854;12.902;2023-02-10T10:59:14;65.63;;;24.80;;
20846;SDS011;10584;50.854;12.902;2023-02-10T11:04:38;56.23;;;22.67;;
20846;SDS011;10584;50.854;12.902;2023-02-10T11:10:02;55.93;;;21.60;;
20846;SDS011;10584;50.854;12.902;2023-02-10T11:26:35;55.40;;;20.97;;
20846;SDS011;10584;50.854;12.902;2023-02-10T11:31:57;52.53;;;20.63;;
20846;SDS011;10584;50.854;12.902;2023-02-10T11:37:21;40.73;;;16.70;;
20846;SDS011;10584;50.854;12.902;2023-02-10T11:42:50;53.27;;;21.20;;
20846;SDS011;10584;50.854;12.902;2023-02-10T11:48:16;50.60;;;18.73;;
20846;SDS011;10584;50.854;12.902;2023-02-10T11:53:39;48.50;;;19.70;;
20846;SDS011;10584;50.854;12.902;2023-02-10T12:04:46;50.63;;;19.63;;
20846;SDS011;10584;50.854;12.902;2023-02-10T12:21:54;48.37;;;18.00;;
20846;SDS011;10584;50.854;12.902;2023-02-10T12:33:44;47.23;;;18.77;;
20846;SDS011;10584;50.854;12.902;2023-02-10T13:06:52;52.10;;;19.50;;
20846;SDS011;10584;50.854;12.902;2023-02-10T13:12:25;43.70;;;16.53;;
20846;SDS011;10584;50.854;12.902;2023-02-10T13:17:58;55.37;;;19.90;;
20846;SDS011;10584;50.854;12.902;2023-02-10T13:34:33;49.87;;;19.27;;
20846;SDS011;10584;50.854;12.902;2023-02-10T13:40:13;47.03;;;18.80;;
20846;SDS011;10584;50.854;12.902;2023-02-10T13:45:38;48.77;;;17.73;;
20846;SDS011;10584;50.854;12.902;2023-02-10T13:51:09;46.60;;;17.07;;
20846;SDS011;10584;50.854;12.902;2023-02-10T13:56:32;48.33;;;19.70;;
20846;SDS011;10584;50.854;12.902;2023-02-10T14:07:32;48.47;;;18.30;;
20846;SDS011;10584;50.854;12.902;2023-02-10T14:12:57;46.93;;;17.37;;
20846;SDS011;10584;50.854;12.902;2023-02-10T14:18:23;44.30;;;16.70;;
20846;SDS011;10584;50.854;12.902;2023-02-10T14:23:50;45.40;;;17.37;;
20846;SDS011;10584;50.854;12.902;2023-02-10T14:29:17;40.90;;;17.40;;
20846;SDS011;10584;50.854;12.902;2023-02-10T14:34:40;39.93;;;16.20;;
20846;SDS011;10584;50.854;12.902;2023-02-10T14:40:15;44.43;;;16.27;;
20846;SDS011;10584;50.854;12.902;2023-02-10T14:45:42;37.73;;;16.23;;
20846;SDS011;10584;50.854;12.902;2023-02-10T14:51:27;41.30;;;16.07;;
20846;SDS011;10584;50.854;12.902;2023-02-10T14:56:52;40.47;;;17.20;;
20846;SDS011;10584;50.854;12.902;2023-02-10T15:02:16;38.00;;;15.93;;
20846;SDS011;10584;50.854;12.902;2023-02-10T15:07:41;42.10;;;16.97;;
20846;SDS011;10584;50.854;12.902;2023-02-10T15:13:07;48.63;;;18.47;;
20846;SDS011;10584;50.854;12.902;2023-02-10T15:18:31;40.50;;;17.23;;
20846;SDS011;10584;50.854;12.902;2023-02-10T15:23:56;42.47;;;16.37;;
20846;SDS011;10584;50.854;12.902;2023-02-10T15:29:17;36.97;;;15.87;;
20846;SDS011;10584;50.854;12.902;2023-02-10T15:34:39;37.70;;;15.87;;
20846;SDS011;10584;50.854;12.902;2023-02-10T15:40:01;37.97;;;15.97;;
20846;SDS011;10584;50.854;12.902;2023-02-10T15:45:24;38.40;;;16.47;;
20846;SDS011;10584;50.854;12.902;2023-02-10T15:50:46;33.37;;;15.03;;
20846;SDS011;10584;50.854;12.902;2023-02-10T15:56:10;41.47;;;17.53;;
20846;SDS011;10584;50.854;12.902;2023-02-10T16:01:31;47.93;;;19.40;;
20846;SDS011;10584;50.854;12.902;2023-02-10T16:06:52;54.37;;;21.10;;
20846;SDS011;10584;50.854;12.902;2023-02-10T16:12:14;56.43;;;21.63;;
20846;SDS011;10584;50.854;12.902;2023-02-10T16:17:37;46.33;;;19.77;;
20846;SDS011;10584;50.854;12.902;2023-02-10T16:23:01;45.30;;;17.63;;
20846;SDS011;10584;50.854;12.902;2023-02-10T16:28:26;47.13;;;19.83;;
20846;SDS011;10584;50.854;12.902;2023-02-10T16:33:47;43.57;;;18.13;;
20846;SDS011;10584;50.854;12.902;2023-02-10T16:39:27;43.20;;;17.63;;
20846;SDS011;10584;50.854;12.902;2023-02-10T16:44:49;42.83;;;17.73;;
20846;SDS011;10584;50.854;12.902;2023-02-10T16:50:17;49.60;;;17.73;;
20846;SDS011;10584;50.854;12.902;2023-02-10T16:55:43;46.83;;;19.30;;
20846;SDS011;10584;50.854;12.902;2023-02-10T17:01:08;66.33;;;23.97;;
20846;SDS011;10584;50.854;12.902;2023-02-10T17:06:29;53.47;;;20.70;;
20846;SDS011;10584;50.854;12.902;2023-02-10T17:11:52;66.10;;;24.90;;
20846;SDS011;10584;50.854;12.902;2023-02-10T17:17:14;74.57;;;26.90;;
20846;SDS011;10584;50.854;12.902;2023-02-10T17:22:35;77.97;;;27.63;;
20846;SDS011;10584;50.854;12.902;2023-02-10T17:27:57;73.47;;;26.53;;
20846;SDS011;10584;50.854;12.902;2023-02-10T17:33:22;45.80;;;18.37;;
20846;SDS011;10584;50.854;12.902;2023-02-10T17:38:45;36.90;;;15.37;;
20846;SDS011;10584;50.854;12.902;2023-02-10T17:44:10;42.80;;;17.83;;
20846;SDS011;10584;50.854;12.902;2023-02-10T17:49:32;35.37;;;13.97;;
20846;SDS011;10584;50.854;12.902;2023-02-10T17:54:54;33.17;;;14.50;;
20846;SDS011;10584;50.854;12.902;2023-02-10T18:00:16;35.10;;;14.13;;
20846;SDS011;10584;50.854;12.902;2023-02-10T18:05:39;32.03;;;12.23;;
20846;SDS011;10584;50.854;12.902;2023-02-10T18:11:04;43.20;;;18.70;;
20846;SDS011;10584;50.854;12.902;2023-02-10T18:16:25;43.40;;;17.40;;
20846;SDS011;10584;50.854;12.902;2023-02-10T18:21:47;33.00;;;14.30;;
20846;SDS011;10584;50.854;12.902;2023-02-10T18:27:08;37.83;;;14.27;;
20846;SDS011;10584;50.854;12.902;2023-02-10T18:32:30;37.70;;;15.90;;
20846;SDS011;10584;50.854;12.902;2023-02-10T18:37:52;37.43;;;14.73;;
20846;SDS011;10584;50.854;12.902;2023-02-10T18:43:13;42.57;;;17.87;;
20846;SDS011;10584;50.854;12.902;2023-02-10T18:48:35;48.63;;;18.97;;
20846;SDS011;10584;50.854;12.902;2023-02-10T18:53:57;50.23;;;21.03;;
20846;SDS011;10584;50.854;12.902;2023-02-10T18:59:19;48.87;;;18.17;;
20846;SDS011;10584;50.854;12.902;2023-02-10T19:04:43;57.50;;;22.27;;
20846;SDS011;10584;50.854;12.902;2023-02-10T19:10:05;55.83;;;21.23;;
20846;SDS011;10584;50.854;12.902;2023-02-10T19:15:27;59.40;;;20.70;;
20846;SDS011;10584;50.854;12.902;2023-02-10T19:20:48;54.23;;;20.37;;
20846;SDS011;10584;50.854;12.902;2023-02-10T19:26:10;59.93;;;22.57;;
20846;SDS011;10584;50.854;12.902;2023-02-10T19:31:33;59.33;;;23.80;;
20846;SDS011;10584;50.854;12.902;2023-02-10T19:36:54;67.37;;;24.27;;
20846;SDS011;10584;50.854;12.902;2023-02-10T19:42:16;59.10;;;23.17;;
20846;SDS011;10584;50.854;12.902;2023-02-10T19:47:38;65.33;;;25.63;;
20846;SDS011;10584;50.854;12.902;2023-02-10T19:52:59;71.47;;;25.97;;
20846;SDS011;10584;50.854;12.902;2023-02-10T19:58:21;70.70;;;25.97;;
20846;SDS011;10584;50.854;12.902;2023-02-10T20:03:46;62.67;;;23.33;;
20846;SDS011;10584;50.854;12.902;2023-02-10T20:09:09;67.10;;;25.27;;
20846;SDS011;10584;50.854;12.902;2023-02-10T20:14:31;67.00;;;25.03;;
20846;SDS011;10584;50.854;12.902;2023-02-10T20:19:53;64.13;;;25.33;;
20846;SDS011;10584;50.854;12.902;2023-02-10T20:25:15;74.87;;;26.53;;
20846;SDS011;10584;50.854;12.902;2023-02-10T20:30:36;63.10;;;24.37;;
20846;SDS011;10584;50.854;12.902;2023-02-10T20:35:59;72.20;;;26.87;;
20846;SDS011;10584;50.854;12.902;2023-02-10T20:41:21;59.97;;;22.80;;
20846;SDS011;10584;50.854;12.902;2023-02-10T20:46:43;74.00;;;26.20;;
20846;SDS011;10584;50.854;12.902;2023-02-10T20:52:04;65.57;;;24.57;;
20846;SDS011;10584;50.854;12.902;2023-02-10T20:57:26;62.10;;;25.00;;
20846;SDS011;10584;50.854;12.902;2023-02-10T21:02:48;62.57;;;24.27;;
20846;SDS011;10584;50.854;12.902;2023-02-10T21:08:09;61.60;;;23.13;;
20846;SDS011;10584;50.854;12.902;2023-02-10T21:13:31;51.83;;;19.40;;
20846;SDS011;10584;50.854;12.902;2023-02-10T21:18:53;61.70;;;22.70;;
20846;SDS011;10584;50.854;12.902;2023-02-10T21:24:15;57.70;;;21.80;;
20846;SDS011;10584;50.854;12.902;2023-02-10T21:29:37;58.47;;;21.47;;
20846;SDS011;10584;50.854;12.902;2023-02-10T21:34:59;60.33;;;22.40;;
20846;SDS011;10584;50.854;12.902;2023-02-10T21:40:20;57.73;;;21.00;;
20846;SDS011;10584;50.854;12.902;2023-02-10T21:45:48;37.20;;;14.03;;
20846;SDS011;10584;50.854;12.902;2023-02-10T21:51:10;57.13;;;20.27;;
20846;SDS011;10584;50.854;12.902;2023-02-10T21:56:31;57.70;;;20.00;;
20846;SDS011;10584;50.854;12.902;2023-02-10T22:01:53;58.53;;;22.37;;
20846;SDS011;10584;50.854;12.902;2023-02-10T22:07:14;53.33;;;20.67;;
20846;SDS011;10584;50.854;12.902;2023-02-10T22:12:35;56.37;;;21.87;;
20846;SDS011;10584;50.854;12.902;2023-02-10T22:17:57;37.10;;;14.10;;
20846;SDS011;10584;50.854;12.902;2023-02-10T22:23:18;44.50;;;17.40;;
20846;SDS011;10584;50.854;12.902;2023-02-10T22:28:40;49.07;;;19.87;;
20846;SDS011;10584;50.854;12.902;2023-02-10T22:34:03;58.30;;;20.27;;
20846;SDS011;10584;50.854;12.902;2023-02-10T22:39:25;51.73;;;17.30;;
20846;SDS011;10584;50.854;12.902;2023-02-10T22:44:47;51.57;;;20.13;;
20846;SDS011;10584;50.854;12.902;2023-02-10T22:50:09;53.20;;;20.37;;
20846;SDS011;10584;50.854;12.902;2023-02-10T22:55:31;55.07;;;21.27;;
20846;SDS011;10584;50.854;12.902;2023-02-10T23:00:52;54.07;;;20.73;;
20846;SDS011;10584;50.854;12.902;2023-02-10T23:06:14;51.33;;;19.33;;
20846;SDS011;10584;50.854;12.902;2023-02-10T23:11:37;48.90;;;17.03;;
20846;SDS011;10584;50.854;12.902;2023-02-10T23:17:01;56.20;;;20.17;;
20846;SDS011;10584;50.854;12.902;2023-02-10T23:22:23;44.90;;;19.27;;
20846;SDS011;10584;50.854;12.902;2023-02-10T23:27:45;53.37;;;21.57;;
20846;SDS011;10584;50.854;12.902;2023-02-10T23:33:06;37.83;;;15.07;;
20846;SDS011;10584;50.854;12.902;2023-02-10T23:38:28;42.00;;;16.03;;
20846;SDS011;10584;50.854;12.902;2023-02-10T23:43:49;52.63;;;19.33;;
20846;SDS011;10584;50.854;12.902;2023-02-10T23:49:11;52.03;;;20.30;;
20846;SDS011;10584;50.854;12.902;2023-02-10T23:54:33;52.43;;;20.30;;
20846;SDS011;10584;50.854;12.902;2023-02-10T23:59:55;44.00;;;17.83;;
